createdAt,value
2022-12-24T00:01:34.381Z,35.45
2022-12-24T00:06:27.554Z,34.25
2022-12-24T00:11:25.104Z,27.45
2022-12-24T00:16:20.557Z,33.80
2022-12-24T00:21:13.415Z,32.95
2022-12-24T00:26:04.696Z,32.38
2022-12-24T00:30:59.082Z,35.43
2022-12-24T00:35:53.910Z,41.03
2022-12-24T00:40:44.639Z,34.42
2022-12-24T00:45:36.064Z,35.95
2022-12-24T00:50:30.336Z,35.47
2022-12-24T00:55:21.665Z,33.15
2022-12-24T01:00:13.844Z,33.50
2022-12-24T01:05:16.665Z,29.13
2022-12-24T01:10:15.265Z,29.57
2022-12-24T01:15:07.485Z,28.95
2022-12-24T01:19:58.936Z,24.58
2022-12-24T01:24:52.779Z,25.87
2022-12-24T01:29:45.590Z,26.90
2022-12-24T01:34:39.719Z,26.15
2022-12-24T01:39:31.532Z,20.47
2022-12-24T01:44:35.794Z,27.27
2022-12-24T01:49:31.078Z,31.02
2022-12-24T01:54:26.819Z,29.92
2022-12-24T01:59:20.326Z,25.73
2022-12-24T02:04:16.930Z,28.03
2022-12-24T02:09:12.684Z,28.90
2022-12-24T02:14:08.016Z,32.73
2022-12-24T02:19:08.965Z,39.38
2022-12-24T02:24:33.218Z,34.95
2022-12-24T02:29:43.291Z,41.83
2022-12-24T02:34:43.452Z,40.15
2022-12-24T02:39:42.053Z,39.15
2022-12-24T02:44:39.789Z,31.17
2022-12-24T02:49:31.212Z,35.47
2022-12-24T02:54:25.993Z,37.00
2022-12-24T02:59:55.282Z,35.78
2022-12-24T03:05:00.928Z,32.53
2022-12-24T03:10:07.064Z,30.23
2022-12-24T03:14:57.945Z,29.03
2022-12-24T03:19:48.581Z,30.00
2022-12-24T03:24:39.806Z,27.40
2022-12-24T03:29:34.563Z,30.50
2022-12-24T03:34:28.579Z,29.33
2022-12-24T03:39:22.457Z,29.85
2022-12-24T03:44:18.353Z,35.70
2022-12-24T03:49:14.509Z,29.10
2022-12-24T03:54:09.318Z,30.87
2022-12-24T03:59:02.529Z,30.17
2022-12-24T04:03:53.726Z,31.85
2022-12-24T04:08:50.404Z,35.83
2022-12-24T04:13:42.416Z,39.17
2022-12-24T04:18:36.653Z,40.67
2022-12-24T04:23:32.837Z,40.35
2022-12-24T04:28:28.409Z,42.67
2022-12-24T04:33:21.118Z,45.13
2022-12-24T04:38:13.439Z,46.58
2022-12-24T04:43:05.023Z,37.80
2022-12-24T04:47:59.229Z,40.30
2022-12-24T04:52:50.359Z,42.97
2022-12-24T04:57:48.456Z,37.42
2022-12-24T05:02:43.113Z,37.40
2022-12-24T05:07:37.912Z,44.47
2022-12-24T05:12:31.079Z,42.40
2022-12-24T05:17:24.534Z,39.60
2022-12-24T05:22:30.502Z,47.03
2022-12-24T05:27:26.047Z,33.88
2022-12-24T05:32:19.266Z,43.58
2022-12-24T05:37:13.795Z,39.95
2022-12-24T05:42:08.295Z,43.63
2022-12-24T05:47:01.619Z,38.40
2022-12-24T05:51:52.959Z,42.40
2022-12-24T05:56:46.922Z,38.45
2022-12-24T06:01:45.992Z,40.05
2022-12-24T06:06:40.642Z,37.83
2022-12-24T06:11:32.783Z,40.25
2022-12-24T06:16:27.817Z,36.90
2022-12-24T06:21:19.999Z,33.80
2022-12-24T06:26:16.877Z,33.20
2022-12-24T06:31:18.876Z,34.38
2022-12-24T06:36:17.088Z,33.17
2022-12-24T06:41:10.160Z,33.20
2022-12-24T06:46:08.700Z,36.88
2022-12-24T06:51:01.829Z,35.40
2022-12-24T06:55:53.864Z,36.83
2022-12-24T07:00:44.993Z,32.40
2022-12-24T07:05:38.959Z,36.97
2022-12-24T07:10:30.696Z,38.95
2022-12-24T07:15:24.732Z,40.17
2022-12-24T07:20:17.427Z,34.40
2022-12-24T07:25:10.965Z,30.50
2022-12-24T07:30:02.187Z,34.73
2022-12-24T07:34:55.172Z,30.00
2022-12-24T07:39:46.537Z,29.90
2022-12-24T07:44:41.183Z,30.05
2022-12-24T07:49:32.387Z,28.27
2022-12-24T07:54:23.773Z,27.85
2022-12-24T07:59:16.467Z,28.70
2022-12-24T08:04:10.699Z,28.83
2022-12-24T08:09:02.640Z,34.87
2022-12-24T08:13:56.156Z,36.23
2022-12-24T08:18:47.523Z,36.00
2022-12-24T08:23:41.262Z,26.95
2022-12-24T08:28:34.319Z,30.65
2022-12-24T08:33:28.134Z,30.43
2022-12-24T08:38:22.142Z,31.43
2022-12-24T08:43:18.903Z,32.15
2022-12-24T08:48:14.076Z,31.23
2022-12-24T08:53:13.947Z,28.85
2022-12-24T08:58:06.113Z,33.78
2022-12-24T09:03:06.857Z,34.33
2022-12-24T09:07:57.783Z,29.90
2022-12-24T09:12:48.754Z,31.75
2022-12-24T09:17:41.676Z,33.72
2022-12-24T09:22:35.332Z,28.02
2022-12-24T09:27:28.049Z,35.88
2022-12-24T09:32:19.888Z,30.45
2022-12-24T09:37:16.601Z,27.38
2022-12-24T09:42:22.588Z,33.60
2022-12-24T09:47:25.598Z,30.80
2022-12-24T09:52:20.926Z,31.73
2022-12-24T09:57:39.178Z,31.23
2022-12-24T10:02:33.815Z,31.40
2022-12-24T10:07:40.019Z,23.83
2022-12-24T10:12:46.074Z,29.52
2022-12-24T10:17:53.016Z,26.10
2022-12-24T10:22:58.713Z,30.48
2022-12-24T10:27:54.841Z,31.67
2022-12-24T10:32:46.623Z,27.85
2022-12-24T10:37:38.784Z,26.87
2022-12-24T10:42:51.110Z,27.80
2022-12-24T10:47:50.270Z,32.47
2022-12-24T10:52:45.447Z,28.67
2022-12-24T10:57:41.427Z,30.17
2022-12-24T11:02:36.229Z,30.60
2022-12-24T11:07:34.797Z,32.75
2022-12-24T11:12:31.430Z,31.42
2022-12-24T11:17:26.920Z,31.73
2022-12-24T11:22:31.078Z,28.07
2022-12-24T11:27:55.273Z,28.88
2022-12-24T11:32:50.730Z,32.73
2022-12-24T11:37:42.362Z,30.02
2022-12-24T11:42:55.749Z,36.63
2022-12-24T11:47:50.529Z,30.90
2022-12-24T11:52:41.895Z,28.73
2022-12-24T11:57:42.011Z,32.28
2022-12-24T12:02:40.011Z,31.23
2022-12-24T12:07:37.353Z,25.58
2022-12-24T12:12:36.538Z,30.20
2022-12-24T12:17:41.569Z,26.38
2022-12-24T12:22:45.848Z,24.23
2022-12-24T12:27:47.026Z,27.05
2022-12-24T12:32:52.391Z,29.98
2022-12-24T12:37:59.897Z,26.42
2022-12-24T12:43:03.999Z,28.45
2022-12-24T12:48:35.101Z,27.40
2022-12-24T12:53:39.061Z,23.57
2022-12-24T12:58:35.812Z,27.52
2022-12-24T13:03:58.457Z,26.83
2022-12-24T13:09:21.377Z,28.45
2022-12-24T13:14:51.640Z,25.70
2022-12-24T13:20:12.976Z,26.05
2022-12-24T13:25:03.367Z,27.30
2022-12-24T13:30:12.152Z,25.85
2022-12-24T13:35:42.617Z,26.23
2022-12-24T13:40:33.127Z,26.33
2022-12-24T13:45:50.782Z,24.90
2022-12-24T13:50:47.203Z,32.07
2022-12-24T13:55:39.173Z,25.95
2022-12-24T14:00:47.733Z,23.43
2022-12-24T14:05:54.314Z,27.90
2022-12-24T14:11:08.733Z,26.05
2022-12-24T14:16:18.732Z,25.27
2022-12-24T14:21:22.859Z,23.88
2022-12-24T14:26:21.062Z,26.67
2022-12-24T14:31:21.637Z,28.13
2022-12-24T14:36:22.864Z,30.35
2022-12-24T14:41:30.179Z,30.77
2022-12-24T14:46:32.959Z,28.08
2022-12-24T14:51:42.702Z,24.05
2022-12-24T14:56:39.127Z,27.73
2022-12-24T15:06:55.828Z,26.52
2022-12-24T15:11:53.117Z,24.83
2022-12-24T15:16:47.174Z,23.52
2022-12-24T15:21:47.768Z,25.80
2022-12-24T15:26:55.660Z,26.08
2022-12-24T15:31:45.843Z,26.77
2022-12-24T15:36:41.446Z,26.80
2022-12-24T15:42:05.432Z,27.08
2022-12-24T15:47:08.140Z,30.80
2022-12-24T15:52:11.479Z,27.90
2022-12-24T15:57:17.683Z,31.53
2022-12-24T16:02:40.310Z,36.45
2022-12-24T16:07:51.969Z,39.03
2022-12-24T16:12:53.098Z,31.63
2022-12-24T16:17:46.933Z,42.10
2022-12-24T16:22:42.147Z,34.97
2022-12-24T16:27:33.763Z,36.33
2022-12-24T16:32:38.181Z,37.50
2022-12-24T16:37:28.770Z,41.80
2022-12-24T16:42:34.436Z,36.30
2022-12-24T16:47:34.659Z,48.13
2022-12-24T16:52:32.239Z,39.10
2022-12-24T16:57:28.141Z,38.60
2022-12-24T17:02:22.461Z,34.40
2022-12-24T17:07:18.750Z,33.47
2022-12-24T17:12:10.333Z,33.63
2022-12-24T17:17:01.459Z,30.48
2022-12-24T17:21:56.546Z,32.40
2022-12-24T17:26:53.377Z,35.83
2022-12-24T17:31:52.530Z,38.30
2022-12-24T17:36:53.408Z,36.92
2022-12-24T17:41:49.367Z,36.17
2022-12-24T17:46:46.386Z,38.60
2022-12-24T17:51:49.406Z,35.05
2022-12-24T17:56:43.824Z,36.72
2022-12-24T18:01:39.004Z,39.35
2022-12-24T18:06:35.796Z,32.97
2022-12-24T18:11:33.234Z,34.47
2022-12-24T18:16:28.281Z,38.05
2022-12-24T18:21:21.937Z,33.35
2022-12-24T18:26:18.816Z,35.67
2022-12-24T18:31:12.647Z,37.95
2022-12-24T18:36:05.363Z,34.22
2022-12-24T18:40:56.860Z,32.27
2022-12-24T18:45:58.608Z,37.25
2022-12-24T18:51:06.379Z,38.30
2022-12-24T18:55:58.327Z,34.05
2022-12-24T19:00:56.452Z,32.55
2022-12-24T19:05:52.610Z,35.10
2022-12-24T19:11:04.802Z,37.75
2022-12-24T19:15:59.540Z,33.65
2022-12-24T19:20:58.807Z,36.22
2022-12-24T19:25:51.306Z,36.40
2022-12-24T19:30:45.474Z,36.97
2022-12-24T19:35:42.192Z,43.03
2022-12-24T19:40:40.486Z,35.20
2022-12-24T19:45:36.465Z,39.63
2022-12-24T19:50:35.373Z,38.30
2022-12-24T19:55:31.362Z,39.22
2022-12-24T20:00:24.327Z,34.30
2022-12-24T20:05:21.201Z,39.13
2022-12-24T20:10:18.468Z,35.92
2022-12-24T20:15:13.867Z,39.10
2022-12-24T20:20:07.976Z,38.35
2022-12-24T20:25:07.554Z,41.65
2022-12-24T20:30:08.230Z,36.55
2022-12-24T20:35:02.532Z,39.85
2022-12-24T20:39:57.051Z,37.10
2022-12-24T20:44:54.170Z,39.72
2022-12-24T20:49:48.345Z,32.72
2022-12-24T20:54:50.050Z,38.70
2022-12-24T20:59:43.472Z,40.80
2022-12-24T21:04:44.095Z,29.05
2022-12-24T21:09:36.153Z,36.55
2022-12-24T21:14:34.078Z,35.55
2022-12-24T21:19:29.316Z,31.87
2022-12-24T21:24:31.536Z,36.78
2022-12-24T21:29:21.402Z,40.85
2022-12-24T21:34:16.753Z,37.13
2022-12-24T21:39:08.778Z,37.42
2022-12-24T21:44:03.679Z,36.85
2022-12-24T21:49:08.306Z,37.88
2022-12-24T21:54:15.615Z,38.40
2022-12-24T21:59:07.194Z,35.97
2022-12-24T22:03:58.531Z,35.97
2022-12-24T22:09:01.837Z,39.10
2022-12-24T22:13:55.843Z,36.95
2022-12-24T22:18:47.953Z,36.70
2022-12-24T22:23:43.271Z,41.85
2022-12-24T22:28:35.741Z,34.58
2022-12-24T22:33:36.750Z,34.42
2022-12-24T22:38:29.789Z,34.83
2022-12-24T22:43:21.755Z,35.80
2022-12-24T22:48:14.163Z,32.03
2022-12-24T22:53:07.163Z,31.92
2022-12-24T22:57:57.852Z,32.13
2022-12-24T23:02:49.667Z,27.63
2022-12-24T23:07:41.486Z,29.13
2022-12-24T23:12:50.510Z,33.65
2022-12-24T23:17:42.264Z,30.23
2022-12-24T23:22:33.819Z,30.92
2022-12-24T23:27:24.992Z,31.08
2022-12-24T23:32:19.148Z,33.20
2022-12-24T23:37:11.897Z,29.10
2022-12-24T23:42:03.548Z,30.25
2022-12-24T23:46:53.614Z,31.17
2022-12-24T23:51:48.325Z,27.52
2022-12-24T23:56:39.765Z,36.10
